Overview Statistics Trail Chart Weather Telemetry Raw packets
 

This is the latest recevied weather packets stored in our database for station/object KF0RZX-13. If no packets are shown the sender has not sent any weather packets the latest 10 day(s).

<< 8 9 10 11 12 13 14 >>
Time Temp. Humidity Pressure Rain* Wind** Luminosity Snow
1787923225 16.11° C 94% 1021 hPa 0 mm - - -
1787921418 16.11° C 94% 1021 hPa 0 mm - - -
1787919617 15° C 100% 1021 hPa 0 mm - - -
1787917808 16.11° C 94% 1021.3 hPa 0 mm - - -
1787916001 16.11° C 94% 1021.3 hPa 0 mm - - -
1787914196 16.11° C 94% 1021.7 hPa 0 mm - - -
1787912392 17.22° C 88% 1022 hPa 0 mm - - -
1787910586 17.22° C 88% 1022 hPa 0 mm - - -
1787908782 17.22° C 88% 1022 hPa 0 mm - - -
1787906976 17.22° C 88% 1022.4 hPa 0 mm - - -
1787905171 18.89° C 73% 1022.4 hPa 0 mm - - -
1787903368 20° C 73% 1022.4 hPa 0 mm - - -
1787901546 20° C 73% 1022.4 hPa 0 mm - - -
1787899741 20° C 73% 1022.4 hPa 0 mm - - -
1787897936 20° C 78% 1021.7 hPa 0 mm - - -
1787896131 20° C 78% 1021.7 hPa 0 mm - - -
1787894326 20° C 78% 1021.7 hPa 0 mm - - -
1787892521 20° C 73% 1021.3 hPa 0 mm - - -
1787890716 22.22° C 60% 1021.7 hPa 0 mm - - -
1787888911 22.22° C 60% 1021.7 hPa 0 mm - - -
1787887106 22.22° C 65% 1021.3 hPa 0 mm - - -
1787885301 22.78° C 61% 1021 hPa 0 mm - - -
1787883496 25° C 54% 1020.7 hPa 0 mm - - -
1787881691 26.11° C 48% 1020.7 hPa 0 mm - - -
1787879886 30° C 33% 1020.7 hPa 0 mm - - -

* Rain latest hour (hover to see other rain measurements)
** Current wind speed in m/s (hover to see current wind gust speed)